Time;durP1;ratioP1;P1;durP2;ratioP2;P2;SDS_P1;SDS_P2;PMS_P1;PMS_P2;Temp;Humidity;BMP_temperature;BMP_pressure;BME280_temperature;BME280_humidity;BME280_pressure;Samples;Min_cycle;Max_cycle;Signal;HPM_P1;HPM_P2
2023/06/13 00:01:24;;;;;;;6.07;3.03;;;13.70;95.30;;;;;;5134492;27;20210;-77
2023/06/13 00:03:53;;;;;;;5.63;3.00;;;13.60;95.70;;;;;;5149085;27;20228;-76
2023/06/13 00:06:23;;;;;;;6.53;3.40;;;13.50;95.70;;;;;;5138241;27;20328;-77
2023/06/13 00:08:51;;;;;;;6.43;3.10;;;13.50;96.10;;;;;;5134326;27;20650;-77
2023/06/13 00:11:20;;;;;;;5.17;3.20;;;13.50;96.40;;;;;;5134138;27;20241;-78
2023/06/13 00:13:49;;;;;;;4.50;3.03;;;13.40;96.60;;;;;;5140655;27;20216;-78
2023/06/13 00:16:17;;;;;;;3.93;2.90;;;13.40;96.90;;;;;;5154752;27;20565;-78
2023/06/13 00:18:47;;;;;;;7.07;3.60;;;13.30;97.00;;;;;;5154814;27;20603;-78
2023/06/13 00:21:16;;;;;;;5.93;3.40;;;13.30;97.40;;;;;;5153262;27;20232;-76
2023/06/13 00:23:44;;;;;;;6.73;3.47;;;13.20;97.70;;;;;;5133545;27;20231;-78
2023/06/13 00:26:12;;;;;;;7.53;3.20;;;13.20;97.90;;;;;;5133751;27;20233;-76
2023/06/13 00:28:42;;;;;;;6.93;2.97;;;13.20;98.20;;;;;;5133478;27;20560;-78
2023/06/13 00:31:10;;;;;;;5.50;3.30;;;13.10;98.50;;;;;;5133597;27;21338;-76
2023/06/13 00:33:43;;;;;;;6.00;3.13;;;13.00;98.80;;;;;;5133500;27;20231;-78
2023/06/13 00:36:16;;;;;;;4.23;3.13;;;13.00;99.00;;;;;;5133375;27;20243;-77
2023/06/13 00:38:44;;;;;;;5.23;3.10;;;13.00;99.20;;;;;;5133969;27;20229;-76
2023/06/13 00:41:13;;;;;;;7.57;3.30;;;12.90;99.70;;;;;;5133831;27;20210;-78
2023/06/13 00:43:43;;;;;;;6.37;3.40;;;12.80;99.90;;;;;;5133112;27;20206;-77
2023/06/13 00:46:13;;;;;;;7.53;3.20;;;12.80;99.90;;;;;;5133057;27;20272;-76
2023/06/13 00:48:43;;;;;;;5.57;3.40;;;12.70;99.90;;;;;;5133100;27;20308;-78
2023/06/13 00:51:14;;;;;;;5.67;3.23;;;12.70;99.90;;;;;;5133396;27;20244;-78
2023/06/13 00:53:47;;;;;;;7.37;3.00;;;12.70;99.90;;;;;;5133223;27;20209;-76
2023/06/13 00:56:15;;;;;;;5.17;3.33;;;12.70;99.90;;;;;;5133286;27;20592;-76
2023/06/13 00:58:45;;;;;;;4.10;2.93;;;12.60;99.90;;;;;;5133168;27;20212;-78
2023/06/13 01:01:19;;;;;;;4.87;3.10;;;12.60;99.90;;;;;;5136298;27;20213;-77
2023/06/13 01:03:47;;;;;;;8.10;3.53;;;12.50;99.90;;;;;;5153864;27;20189;-78
2023/06/13 01:06:16;;;;;;;5.20;3.00;;;12.50;99.90;;;;;;5150612;27;20315;-76
2023/06/13 01:08:44;;;;;;;5.07;3.10;;;12.40;99.90;;;;;;5132928;27;20635;-77
2023/06/13 01:11:17;;;;;;;5.07;3.20;;;12.30;99.90;;;;;;5132971;27;20266;-77
2023/06/13 01:13:53;;;;;;;4.83;3.10;;;12.30;99.90;;;;;;5132621;27;20189;-78
2023/06/13 01:16:25;;;;;;;4.87;3.40;;;12.30;99.90;;;;;;5153400;27;20284;-76
2023/06/13 01:18:59;;;;;;;6.87;3.30;;;12.20;99.90;;;;;;5153817;27;20241;-75
2023/06/13 01:21:28;;;;;;;8.13;3.53;;;12.20;99.90;;;;;;5153657;27;20257;-80
2023/06/13 01:24:02;;;;;;;4.60;3.10;;;12.10;99.90;;;;;;5135474;27;20209;-78
2023/06/13 01:26:54;;;;;;;7.03;3.57;;;12.10;99.90;;;;;;5133044;27;20252;-77
2023/06/13 01:29:22;;;;;;;3.70;3.00;;;12.10;99.90;;;;;;5128373;27;20209;-78
2023/06/13 01:31:53;;;;;;;8.03;3.03;;;12.00;99.90;;;;;;5132397;27;20213;-78
2023/06/13 01:34:21;;;;;;;6.57;3.27;;;11.90;99.90;;;;;;5132924;27;20205;-78
2023/06/13 01:36:50;;;;;;;7.77;3.33;;;11.80;99.90;;;;;;5132784;28;20250;-78
2023/06/13 01:39:18;;;;;;;4.87;3.03;;;11.80;99.90;;;;;;5137785;27;20209;-78
2023/06/13 01:41:46;;;;;;;5.20;3.03;;;11.70;99.90;;;;;;5153304;27;20623;-78
2023/06/13 01:44:18;;;;;;;5.73;3.43;;;11.70;99.90;;;;;;5153290;27;20653;-77
2023/06/13 01:46:57;;;;;;;6.80;3.20;;;11.60;99.90;;;;;;5153155;27;20269;-78
2023/06/13 01:49:47;;;;;;;6.03;3.00;;;11.60;99.90;;;;;;5139289;27;20205;-77
2023/06/13 01:52:25;;;;;;;4.60;3.30;;;11.50;99.90;;;;;;5132446;28;20600;-78
2023/06/13 01:55:05;;;;;;;7.47;3.60;;;11.40;99.90;;;;;;5132619;28;20209;-78
2023/06/13 01:57:44;;;;;;;4.43;3.30;;;11.40;99.90;;;;;;5132297;28;20650;-78
2023/06/13 02:00:17;;;;;;;8.10;3.53;;;11.30;99.90;;;;;;5153541;27;20257;-79
2023/06/13 02:02:46;;;;;;;7.67;3.27;;;11.20;99.90;;;;;;5153053;27;20193;-76
2023/06/13 02:05:14;;;;;;;4.90;3.57;;;11.10;99.90;;;;;;5152943;27;20212;-78
2023/06/13 02:07:44;;;;;;;3.30;3.00;;;11.10;99.90;;;;;;5151340;27;20256;-78
2023/06/13 02:10:12;;;;;;;7.20;3.40;;;11.10;99.90;;;;;;5152770;27;20224;-79
2023/06/13 02:12:40;;;;;;;4.37;3.27;;;11.20;99.90;;;;;;5153403;27;20200;-77
2023/06/13 02:15:10;;;;;;;4.83;3.33;;;11.10;99.90;;;;;;5157407;27;20247;-77
2023/06/13 02:17:40;;;;;;;4.50;3.10;;;11.10;99.90;;;;;;5138608;27;20564;-78
2023/06/13 02:20:10;;;;;;;12.70;3.80;;;11.10;99.90;;;;;;5136216;27;20617;-77
2023/06/13 02:22:38;;;;;;;8.23;3.57;;;11.20;99.90;;;;;;5136128;27;20206;-77
2023/06/13 02:25:06;;;;;;;4.57;3.27;;;11.10;99.90;;;;;;5150219;27;20205;-75
2023/06/13 02:27:35;;;;;;;5.53;3.53;;;11.10;99.90;;;;;;5157033;27;20262;-77
2023/06/13 02:30:04;;;;;;;4.27;3.27;;;11.00;99.90;;;;;;5156575;27;20291;-78
2023/06/13 02:32:33;;;;;;;5.77;3.10;;;11.10;99.90;;;;;;5145179;27;20237;-77
2023/06/13 02:35:03;;;;;;;7.43;3.50;;;11.00;99.90;;;;;;5135916;27;20214;-77
2023/06/13 02:37:31;;;;;;;4.13;3.10;;;11.10;99.90;;;;;;5136151;27;20213;-77
2023/06/13 02:39:59;;;;;;;5.47;3.37;;;11.10;99.90;;;;;;5137628;27;20647;-77
2023/06/13 02:42:28;;;;;;;5.50;3.40;;;11.10;99.90;;;;;;5155940;27;20730;-76
2023/06/13 02:44:56;;;;;;;6.40;3.50;;;11.10;99.90;;;;;;5156795;27;20212;-78
2023/06/13 02:47:24;;;;;;;6.20;3.20;;;11.00;99.90;;;;;;5154048;27;20674;-76
2023/06/13 02:49:52;;;;;;;4.57;3.20;;;11.10;99.90;;;;;;5135612;27;20206;-77
2023/06/13 02:52:23;;;;;;;5.80;3.30;;;11.00;99.90;;;;;;5135479;27;20274;-76
2023/06/13 02:54:51;;;;;;;4.37;2.70;;;11.00;99.90;;;;;;5135980;27;20303;-76
2023/06/13 02:57:19;;;;;;;5.43;2.90;;;11.00;99.90;;;;;;5135432;27;20728;-77
2023/06/13 02:59:48;;;;;;;5.07;3.20;;;11.00;99.90;;;;;;5151681;27;20208;-77
2023/06/13 03:02:20;;;;;;;6.30;3.23;;;11.10;99.90;;;;;;5156152;27;20254;-77
2023/06/13 03:04:48;;;;;;;4.87;3.10;;;11.00;99.90;;;;;;5153702;27;20247;-76
2023/06/13 03:07:20;;;;;;;7.23;3.30;;;11.00;99.90;;;;;;5135655;27;20217;-78
2023/06/13 03:09:49;;;;;;;5.77;3.20;;;11.00;99.90;;;;;;5135469;27;20224;-76
2023/06/13 03:12:17;;;;;;;5.97;3.17;;;11.00;99.90;;;;;;5135330;27;20250;-78
2023/06/13 03:14:45;;;;;;;4.03;3.10;;;11.00;99.90;;;;;;5150055;27;20215;-78
2023/06/13 03:17:16;;;;;;;5.80;3.07;;;11.00;99.90;;;;;;5156347;27;20211;-76
2023/06/13 03:19:44;;;;;;;6.03;3.27;;;11.00;99.90;;;;;;5155714;27;20670;-79
2023/06/13 03:22:14;;;;;;;4.40;3.33;;;10.90;99.90;;;;;;5141466;27;20251;-76
2023/06/13 03:24:42;;;;;;;4.47;3.20;;;10.80;99.90;;;;;;5134190;27;20205;-78
2023/06/13 03:27:12;;;;;;;3.80;2.80;;;10.90;99.90;;;;;;5135278;27;20221;-78
2023/06/13 03:29:41;;;;;;;5.13;3.30;;;10.80;99.90;;;;;;5144024;27;20718;-78
2023/06/13 03:32:10;;;;;;;5.07;3.40;;;10.80;99.90;;;;;;5137972;27;20282;-76
2023/06/13 03:34:39;;;;;;;5.17;3.30;;;10.80;99.90;;;;;;5134896;27;20215;-78
2023/06/13 03:37:08;;;;;;;5.57;3.20;;;10.70;99.90;;;;;;5134924;27;20205;-79
2023/06/13 03:39:37;;;;;;;6.17;3.30;;;10.70;99.90;;;;;;5126204;27;20202;-78
2023/06/13 03:42:06;;;;;;;7.87;3.17;;;10.70;99.90;;;;;;5134142;27;20720;-77
2023/06/13 03:44:35;;;;;;;6.37;3.17;;;10.70;99.90;;;;;;5134306;27;20209;-79
2023/06/13 03:47:05;;;;;;;6.60;3.60;;;10.70;99.90;;;;;;5134419;27;20229;-79
2023/06/13 03:49:33;;;;;;;5.63;3.13;;;10.70;99.90;;;;;;5142619;27;20764;-78
2023/06/13 03:52:01;;;;;;;5.43;3.73;;;10.70;99.90;;;;;;5151836;27;20296;-76
2023/06/13 03:54:30;;;;;;;6.97;3.20;;;10.80;99.90;;;;;;5155048;27;20208;-78
2023/06/13 03:56:58;;;;;;;4.37;2.73;;;10.80;99.90;;;;;;5154282;27;20201;-77
2023/06/13 03:59:26;;;;;;;5.07;3.33;;;10.80;99.90;;;;;;5149653;27;20194;-79
2023/06/13 04:01:56;;;;;;;5.20;3.40;;;10.80;99.90;;;;;;5134085;27;20214;-77
2023/06/13 04:04:26;;;;;;;7.67;3.60;;;10.90;99.90;;;;;;5134104;27;20302;-76
2023/06/13 04:06:55;;;;;;;5.23;3.10;;;10.90;99.90;;;;;;5145589;27;20207;-77
2023/06/13 04:09:23;;;;;;;7.90;3.60;;;10.90;99.90;;;;;;5152115;27;20295;-77
2023/06/13 04:11:51;;;;;;;9.20;3.57;;;10.90;99.90;;;;;;5153786;27;20646;-77
2023/06/13 04:14:19;;;;;;;4.27;3.00;;;10.90;99.90;;;;;;5154402;27;20197;-77
2023/06/13 04:16:48;;;;;;;5.73;3.27;;;10.90;99.90;;;;;;5153616;27;20296;-77
2023/06/13 04:19:18;;;;;;;4.30;3.30;;;10.90;99.90;;;;;;5133958;27;20286;-77
2023/06/13 04:21:46;;;;;;;5.57;3.43;;;11.00;99.90;;;;;;5134155;27;20619;-76
2023/06/13 04:24:15;;;;;;;4.13;3.07;;;11.00;99.90;;;;;;5134018;27;20208;-77
2023/06/13 04:26:45;;;;;;;6.40;3.20;;;11.10;99.90;;;;;;5152096;27;20208;-77
2023/06/13 04:29:15;;;;;;;5.50;3.10;;;11.10;99.90;;;;;;5154482;27;20235;-78
2023/06/13 04:31:44;;;;;;;6.60;3.00;;;11.10;99.90;;;;;;5154327;27;20236;-77
2023/06/13 04:34:13;;;;;;;6.93;3.27;;;11.10;99.90;;;;;;5151374;27;20225;-78
2023/06/13 04:36:44;;;;;;;7.30;3.13;;;11.10;99.90;;;;;;5134056;27;20212;-77
2023/06/13 04:39:12;;;;;;;5.10;3.20;;;11.20;99.90;;;;;;5133859;27;20201;-78
2023/06/13 04:41:43;;;;;;;6.93;3.30;;;11.20;99.90;;;;;;5133642;27;20212;-77
2023/06/13 04:44:13;;;;;;;7.33;3.40;;;11.30;99.90;;;;;;5133502;27;20232;-77
2023/06/13 04:46:41;;;;;;;6.70;3.67;;;11.30;99.90;;;;;;5133397;27;20221;-77
2023/06/13 04:49:10;;;;;;;4.70;2.90;;;11.40;99.90;;;;;;5133065;27;20695;-78
2023/06/13 04:51:38;;;;;;;5.67;3.20;;;11.40;99.90;;;;;;5133237;27;20270;-76
2023/06/13 04:54:09;;;;;;;10.90;3.43;;;11.50;99.90;;;;;;5132267;27;20201;-76
2023/06/13 04:56:37;;;;;;;7.90;3.50;;;11.60;99.90;;;;;;5146028;27;20646;-78
2023/06/13 04:59:09;;;;;;;7.57;3.20;;;11.70;99.90;;;;;;5154029;27;20254;-77
2023/06/13 05:01:37;;;;;;;5.07;3.00;;;11.80;99.90;;;;;;5153868;27;20247;-78
2023/06/13 05:04:06;;;;;;;4.30;3.23;;;11.90;99.90;;;;;;5141575;27;20209;-76
2023/06/13 05:06:37;;;;;;;5.07;3.33;;;11.90;99.90;;;;;;5133383;27;20201;-78
2023/06/13 05:09:07;;;;;;;9.03;3.50;;;12.00;99.90;;;;;;5133353;27;20221;-77
2023/06/13 05:11:36;;;;;;;5.77;3.00;;;12.10;99.90;;;;;;5133461;27;20610;-79
2023/06/13 05:14:04;;;;;;;4.43;3.30;;;12.20;99.90;;;;;;5132932;27;20855;-78
2023/06/13 05:16:34;;;;;;;3.70;3.17;;;12.30;99.90;;;;;;5132865;27;20213;-76
2023/06/13 05:19:05;;;;;;;4.80;3.37;;;12.40;99.90;;;;;;5133624;27;20223;-76
2023/06/13 05:21:34;;;;;;;4.57;3.10;;;12.50;99.90;;;;;;5132765;27;20201;-77
2023/06/13 05:24:03;;;;;;;5.03;3.00;;;12.50;99.90;;;;;;5132947;27;20205;-77
2023/06/13 05:26:33;;;;;;;7.33;3.73;;;12.60;99.90;;;;;;5133147;27;20205;-76
2023/06/13 05:29:04;;;;;;;4.57;2.97;;;12.70;99.90;;;;;;5132914;27;20221;-77
2023/06/13 05:31:33;;;;;;;5.40;3.37;;;12.80;99.90;;;;;;5132899;27;20259;-78
2023/06/13 05:34:02;;;;;;;5.53;3.23;;;12.80;99.90;;;;;;5132616;27;20210;-77
2023/06/13 05:36:30;;;;;;;7.17;3.50;;;13.00;99.90;;;;;;5132957;27;20201;-80
2023/06/13 05:39:00;;;;;;;4.63;3.17;;;13.10;99.90;;;;;;5132611;27;20201;-77
2023/06/13 05:41:28;;;;;;;4.93;3.20;;;13.40;99.90;;;;;;5133008;28;20205;-76
2023/06/13 05:43:58;;;;;;;5.97;3.23;;;13.50;99.90;;;;;;5132581;28;20206;-77
2023/06/13 05:46:26;;;;;;;7.83;3.67;;;13.70;99.80;;;;;;5133270;28;20229;-76
2023/06/13 05:48:58;;;;;;;7.30;2.90;;;13.90;99.00;;;;;;5138720;27;20271;-76
2023/06/13 05:51:29;;;;;;;5.33;2.93;;;14.40;98.70;;;;;;5138037;27;20190;-76
2023/06/13 05:53:58;;;;;;;4.90;2.70;;;15.30;95.00;;;;;;5139586;27;20201;-76
2023/06/13 05:56:27;;;;;;;8.50;2.97;;;16.50;91.50;;;;;;5158315;27;20204;-77
2023/06/13 05:58:56;;;;;;;3.73;2.47;;;17.50;81.40;;;;;;5151318;27;20211;-77
2023/06/13 06:01:25;;;;;;;5.17;2.97;;;18.20;78.20;;;;;;5137825;27;20217;-77
2023/06/13 06:03:53;;;;;;;6.43;3.17;;;19.40;68.40;;;;;;5138090;27;20266;-76
2023/06/13 06:06:22;;;;;;;4.73;2.83;;;19.10;64.80;;;;;;5137475;27;20731;-77
2023/06/13 06:08:50;;;;;;;4.33;2.70;;;20.20;60.10;;;;;;5138342;27;20228;-77
2023/06/13 06:11:19;;;;;;;7.07;2.63;;;20.80;59.50;;;;;;5137473;27;20726;-77
2023/06/13 06:13:47;;;;;;;5.67;2.50;;;21.30;55.20;;;;;;5137233;27;20237;-78
2023/06/13 06:16:16;;;;;;;3.70;2.73;;;22.00;52.90;;;;;;5137690;27;20221;-77
2023/06/13 06:18:45;;;;;;;3.67;2.50;;;22.60;50.10;;;;;;5137108;27;20209;-76
2023/06/13 06:21:14;;;;;;;4.80;2.40;;;22.90;47.00;;;;;;5137458;27;20213;-74
2023/06/13 06:23:45;;;;;;;4.20;2.60;;;23.20;44.10;;;;;;5137463;27;20227;-76
2023/06/13 06:26:14;;;;;;;5.03;2.20;;;23.00;44.20;;;;;;5137247;27;20209;-75
2023/06/13 06:28:42;;;;;;;6.17;2.47;;;22.30;43.40;;;;;;5150352;27;20217;-77
2023/06/13 06:31:10;;;;;;;4.13;2.57;;;22.20;43.20;;;;;;5157699;27;20262;-78
2023/06/13 06:33:40;;;;;;;6.60;2.50;;;22.50;42.60;;;;;;5157968;27;20611;-76
2023/06/13 06:36:08;;;;;;;5.80;2.40;;;22.20;42.50;;;;;;5136662;27;20210;-79
2023/06/13 06:38:36;;;;;;;4.43;2.27;;;22.20;42.10;;;;;;5136554;27;20250;-77
2023/06/13 06:41:05;;;;;;;5.03;2.37;;;22.00;42.40;;;;;;5136562;27;20206;-77
2023/06/13 06:43:33;;;;;;;4.57;2.80;;;22.50;41.70;;;;;;5136182;27;20209;-76
2023/06/13 06:46:01;;;;;;;6.07;2.33;;;22.90;41.00;;;;;;5136920;27;20254;-77
2023/06/13 06:48:30;;;;;;;3.10;2.10;;;23.20;40.30;;;;;;5145662;27;20618;-77
2023/06/13 06:51:00;;;;;;;5.83;2.33;;;23.60;39.50;;;;;;5170983;27;20228;-77
2023/06/13 06:53:29;;;;;;;3.47;2.40;;;24.00;37.20;;;;;;5158932;27;20224;-77
2023/06/13 06:55:58;;;;;;;4.77;2.50;;;25.10;36.30;;;;;;5157352;27;20232;-76
2023/06/13 06:58:26;;;;;;;5.77;2.60;;;25.40;33.20;;;;;;5155166;27;20204;-77
2023/06/13 07:00:56;;;;;;;5.07;2.50;;;25.30;34.10;;;;;;5136670;27;20205;-77
2023/06/13 07:03:25;;;;;;;4.60;2.40;;;25.50;33.40;;;;;;5136821;27;20215;-77
2023/06/13 07:05:53;;;;;;;5.47;2.50;;;25.20;31.70;;;;;;5137137;27;20232;-78
2023/06/13 07:08:23;;;;;;;6.17;2.40;;;24.20;33.10;;;;;;5138972;27;20206;-76
2023/06/13 07:10:51;;;;;;;5.33;2.20;;;24.50;33.10;;;;;;5137764;27;20302;-76
2023/06/13 07:13:20;;;;;;;4.50;2.17;;;24.70;31.80;;;;;;5136430;27;20235;-75
2023/06/13 07:15:48;;;;;;;4.27;2.30;;;24.50;30.40;;;;;;5135998;27;20205;-76
2023/06/13 07:18:16;;;;;;;5.90;2.30;;;23.50;32.10;;;;;;5153493;27;20262;-76
2023/06/13 07:20:45;;;;;;;6.70;2.27;;;23.30;32.20;;;;;;5156980;27;20208;-77
2023/06/13 07:23:14;;;;;;;4.17;2.20;;;23.30;32.00;;;;;;5153511;27;20206;-76
2023/06/13 07:25:44;;;;;;;4.00;2.27;;;23.00;33.20;;;;;;5136435;27;20770;-76
2023/06/13 07:28:12;;;;;;;4.33;2.50;;;23.30;31.70;;;;;;5136438;27;20213;-77
2023/06/13 07:30:41;;;;;;;3.77;2.07;;;24.90;31.60;;;;;;5145361;27;20229;-75
2023/06/13 07:33:09;;;;;;;3.47;2.17;;;25.30;29.10;;;;;;5147726;27;20278;-76
2023/06/13 07:35:38;;;;;;;5.70;2.57;;;24.50;29.00;;;;;;5136440;27;20217;-77
2023/06/13 07:38:06;;;;;;;4.70;2.20;;;24.50;30.80;;;;;;5136837;27;20300;-77
2023/06/13 07:40:35;;;;;;;5.33;2.43;;;24.50;29.70;;;;;;5138078;27;20228;-79
2023/06/13 07:43:04;;;;;;;7.43;2.43;;;24.60;29.70;;;;;;5135851;27;20267;-77
2023/06/13 07:45:33;;;;;;;5.67;2.40;;;24.40;29.50;;;;;;5137929;27;20205;-77
2023/06/13 07:48:01;;;;;;;4.33;2.30;;;25.00;28.40;;;;;;5155841;27;20224;-77
2023/06/13 07:50:30;;;;;;;4.20;2.17;;;25.20;27.50;;;;;;5154374;27;20216;-78
2023/06/13 07:52:58;;;;;;;2.72;2.08;;;25.30;28.50;;;;;;5154598;27;20698;-76
2023/06/13 07:55:27;;;;;;;3.95;2.33;;;25.80;28.90;;;;;;5155294;27;20674;-77
2023/06/13 07:57:55;;;;;;;6.18;2.47;;;26.60;28.00;;;;;;5155528;27;20200;-76
2023/06/13 08:00:29;;;;;;;4.75;2.50;;;26.40;27.30;;;;;;5143679;27;20244;-76
2023/06/13 08:02:57;;;;;;;8.00;2.40;;;26.20;24.70;;;;;;5135016;27;20206;-78
2023/06/13 08:05:27;;;;;;;5.60;2.25;;;26.30;24.00;;;;;;5134786;27;20693;-75
2023/06/13 08:07:56;;;;;;;4.45;2.35;;;26.40;25.30;;;;;;5135165;27;20206;-76
2023/06/13 08:10:25;;;;;;;7.22;2.40;;;26.60;25.60;;;;;;5133897;27;20730;-74
2023/06/13 08:12:56;;;;;;;5.05;2.40;;;27.30;25.30;;;;;;5134912;27;20277;-76
2023/06/13 08:15:25;;;;;;;5.70;2.30;;;27.70;24.10;;;;;;5135158;27;20242;-76
2023/06/13 08:17:57;;;;;;;3.17;2.10;;;28.30;23.60;;;;;;5135112;27;20216;-78
2023/06/13 08:20:26;;;;;;;4.75;2.40;;;27.40;22.10;;;;;;5135112;27;20210;-77
2023/06/13 08:22:56;;;;;;;3.70;2.17;;;27.80;22.20;;;;;;5134942;27;20201;-78
2023/06/13 08:25:24;;;;;;;4.50;2.20;;;27.40;23.60;;;;;;5135793;27;20209;-77
2023/06/13 08:27:52;;;;;;;5.15;2.38;;;28.60;23.80;;;;;;5134583;27;20693;-75
2023/06/13 08:30:21;;;;;;;5.88;2.42;;;27.90;23.60;;;;;;5141329;27;20584;-77
2023/06/13 08:32:52;;;;;;;5.68;2.20;;;27.90;21.70;;;;;;5154900;27;20208;-76
2023/06/13 08:35:23;;;;;;;5.03;2.35;;;28.10;23.00;;;;;;5138788;27;20655;-77
2023/06/13 08:37:52;;;;;;;4.38;2.22;;;28.70;20.90;;;;;;5141894;27;20204;-78
2023/06/13 08:40:20;;;;;;;4.55;2.50;;;28.80;20.30;;;;;;5155148;27;20197;-77
2023/06/13 08:42:50;;;;;;;3.35;2.30;;;28.50;20.20;;;;;;5154819;27;20227;-78
2023/06/13 08:45:20;;;;;;;4.32;2.30;;;28.60;20.40;;;;;;5139380;27;20209;-75
2023/06/13 08:47:48;;;;;;;4.90;2.30;;;28.50;20.20;;;;;;5134485;27;20640;-75
2023/06/13 08:50:24;;;;;;;6.63;2.45;;;28.60;19.40;;;;;;5140239;27;20225;-77
2023/06/13 08:52:55;;;;;;;2.40;2.00;;;28.40;21.60;;;;;;5145796;27;20225;-76
2023/06/13 08:55:25;;;;;;;6.32;2.70;;;29.50;22.70;;;;;;5134368;27;20635;-76
2023/06/13 08:57:57;;;;;;;4.25;2.38;;;29.70;19.40;;;;;;5134287;27;20209;-78
2023/06/13 09:00:26;;;;;;;4.22;2.42;;;29.80;17.10;;;;;;5134136;27;20220;-77
2023/06/13 09:02:55;;;;;;;4.90;2.58;;;29.50;17.40;;;;;;5133443;27;20210;-75
2023/06/13 09:05:25;;;;;;;2.35;2.15;;;28.40;17.70;;;;;;5133757;27;20667;-77
2023/06/13 09:07:56;;;;;;;5.95;2.45;;;28.80;20.70;;;;;;5134162;27;20209;-78
2023/06/13 09:10:45;;;;;;;3.05;2.38;;;29.10;19.70;;;;;;5133467;27;20320;-75
2023/06/13 09:13:15;;;;;;;3.17;2.25;;;29.50;18.10;;;;;;5146236;27;20206;-76
2023/06/13 09:15:45;;;;;;;3.58;2.40;;;29.50;18.80;;;;;;5134362;27;20569;-76
2023/06/13 09:18:15;;;;;;;6.32;2.40;;;29.60;17.40;;;;;;5133388;27;20361;-76
2023/06/13 09:20:43;;;;;;;3.72;2.38;;;29.10;17.50;;;;;;5134163;27;20233;-76
2023/06/13 09:23:16;;;;;;;5.90;2.35;;;29.10;19.60;;;;;;5137919;27;20217;-77
2023/06/13 09:25:47;;;;;;;5.47;2.50;;;29.90;16.80;;;;;;5158954;27;20196;-77
2023/06/13 09:28:31;;;;;;;4.68;2.30;;;29.80;15.90;;;;;;5163601;27;20593;-76
2023/06/13 09:31:00;;;;;;;3.80;2.22;;;29.60;15.70;;;;;;5154136;27;20261;-78
2023/06/13 09:33:28;;;;;;;2.70;2.17;;;29.10;17.90;;;;;;5164064;27;20208;-78
2023/06/13 09:35:57;;;;;;;4.00;2.40;;;29.20;18.00;;;;;;5164850;27;20192;-79
2023/06/13 09:38:35;;;;;;;4.18;2.30;;;29.40;17.90;;;;;;5162705;27;20220;-77
2023/06/13 09:41:04;;;;;;;5.38;2.30;;;28.30;18.40;;;;;;5154171;27;20625;-76
2023/06/13 09:43:33;;;;;;;5.45;2.42;;;28.80;17.50;;;;;;5154293;27;20216;-75
2023/06/13 09:46:02;;;;;;;7.15;2.70;;;28.00;15.20;;;;;;5154747;27;20212;-78
2023/06/13 09:48:30;;;;;;;3.58;2.40;;;27.70;17.00;;;;;;5141413;27;20201;-76
2023/06/13 09:51:04;;;;;;;4.57;2.40;;;28.40;16.80;;;;;;5154101;27;20205;-75
2023/06/13 09:53:36;;;;;;;3.15;2.50;;;29.20;16.60;;;;;;5153538;27;20734;-77
2023/06/13 09:56:08;;;;;;;6.38;2.35;;;29.60;14.70;;;;;;5152538;27;20235;-75
2023/06/13 09:58:37;;;;;;;3.05;2.35;;;29.10;13.80;;;;;;5125086;28;20519;-78
2023/06/13 10:01:11;;;;;;;4.45;2.45;;;29.40;14.10;;;;;;5132848;28;20214;-76
2023/06/13 10:03:41;;;;;;;6.05;2.58;;;29.80;14.10;;;;;;5133173;28;20201;-77
2023/06/13 10:06:09;;;;;;;4.20;2.40;;;28.70;15.10;;;;;;5148869;27;20208;-78
2023/06/13 10:08:39;;;;;;;4.88;2.20;;;28.20;15.30;;;;;;5154001;27;20219;-76
2023/06/13 10:11:10;;;;;;;6.55;2.60;;;28.20;16.70;;;;;;5154008;27;20229;-76
2023/06/13 10:13:46;;;;;;;3.90;2.42;;;28.80;16.00;;;;;;5153717;27;20244;-77
2023/06/13 10:16:16;;;;;;;4.93;2.42;;;28.70;15.90;;;;;;5135799;27;20251;-78
2023/06/13 10:18:48;;;;;;;3.63;2.40;;;28.00;16.20;;;;;;5133274;28;20189;-76
2023/06/13 10:21:17;;;;;;;5.35;2.70;;;28.50;15.90;;;;;;5132798;27;20209;-77
2023/06/13 10:23:49;;;;;;;4.95;2.40;;;28.40;16.10;;;;;;5132052;27;20703;-77
2023/06/13 10:26:27;;;;;;;2.97;2.13;;;28.80;15.40;;;;;;5132808;28;20201;-76
2023/06/13 10:29:10;;;;;;;5.05;2.72;;;28.80;14.60;;;;;;5132606;28;20255;-76
2023/06/13 10:31:50;;;;;;;3.17;2.63;;;28.40;15.10;;;;;;5132846;27;20759;-76
2023/06/13 10:34:34;;;;;;;4.65;2.47;;;28.50;16.00;;;;;;5134683;27;20681;-76
2023/06/13 10:37:32;;;;;;;3.45;2.40;;;29.00;15.40;;;;;;5136580;27;20636;-77
2023/06/13 10:40:27;;;;;;;4.10;2.35;;;28.50;16.50;;;;;;5130243;27;20209;-77
2023/06/13 10:43:04;;;;;;;4.38;2.50;;;29.40;15.70;;;;;;5136568;27;20213;-76
2023/06/13 10:45:36;;;;;;;7.70;2.50;;;29.10;15.70;;;;;;5119328;27;20262;-75
2023/06/13 10:48:06;;;;;;;4.70;2.60;;;29.00;16.00;;;;;;5148535;27;20204;-76
2023/06/13 10:50:38;;;;;;;3.25;2.45;;;29.40;15.70;;;;;;5137197;27;20206;-78
2023/06/13 10:53:09;;;;;;;3.30;2.50;;;29.70;15.10;;;;;;5135712;27;20223;-78
2023/06/13 10:55:40;;;;;;;5.18;2.40;;;29.90;14.00;;;;;;5136309;27;20554;-76
2023/06/13 10:58:12;;;;;;;5.57;2.38;;;29.80;14.20;;;;;;5136341;27;20288;-77
2023/06/13 11:00:41;;;;;;;4.03;2.45;;;29.60;16.00;;;;;;5135950;27;20210;-76
2023/06/13 11:03:11;;;;;;;5.10;2.40;;;29.70;15.30;;;;;;5135698;27;20209;-76
2023/06/13 11:05:49;;;;;;;5.40;2.53;;;29.80;13.70;;;;;;5136952;27;20606;-77
2023/06/13 11:08:20;;;;;;;4.25;2.50;;;29.90;14.00;;;;;;5137555;27;20209;-76
2023/06/13 11:10:52;;;;;;;3.05;2.45;;;30.00;15.20;;;;;;5137624;27;20353;-77
2023/06/13 11:13:21;;;;;;;4.82;2.40;;;30.40;13.80;;;;;;5136585;27;20225;-76
2023/06/13 11:15:50;;;;;;;4.97;2.50;;;29.50;12.20;;;;;;5134758;27;20213;-77
2023/06/13 11:18:31;;;;;;;3.63;2.40;;;29.90;13.90;;;;;;5135777;27;20202;-76
2023/06/13 11:21:01;;;;;;;3.92;2.50;;;29.90;14.00;;;;;;5135821;27;20217;-77
2023/06/13 11:23:54;;;;;;;3.63;2.45;;;29.50;14.30;;;;;;5137442;27;20213;-76
2023/06/13 11:26:25;;;;;;;2.40;2.20;;;29.70;13.20;;;;;;5116375;27;20557;-75
2023/06/13 11:28:54;;;;;;;3.08;2.20;;;29.40;13.10;;;;;;5136506;27;20239;-76
2023/06/13 11:31:23;;;;;;;3.30;2.38;;;29.20;14.50;;;;;;5137062;27;20213;-77
2023/06/13 11:33:54;;;;;;;6.22;2.40;;;28.90;14.40;;;;;;5138270;27;20236;-76
2023/06/13 11:36:26;;;;;;;4.95;2.33;;;28.70;16.00;;;;;;5136881;27;20205;-77
2023/06/13 11:39:03;;;;;;;5.93;2.53;;;27.70;13.10;;;;;;5137202;27;20193;-75
2023/06/13 11:41:33;;;;;;;4.93;2.60;;;27.60;16.60;;;;;;5136838;27;20251;-77
2023/06/13 11:44:02;;;;;;;3.58;2.50;;;26.30;13.60;;;;;;5137364;27;20210;-76
2023/06/13 11:46:31;;;;;;;5.95;2.50;;;26.30;17.60;;;;;;5146228;27;20296;-77
2023/06/13 11:48:59;;;;;;;2.70;2.30;;;26.10;16.10;;;;;;5150180;27;20659;-79
2023/06/13 11:51:30;;;;;;;4.47;2.30;;;26.20;16.90;;;;;;5135801;27;20655;-77
2023/06/13 11:54:01;;;;;;;4.93;2.30;;;26.30;17.70;;;;;;5135326;27;20194;-75
2023/06/13 11:56:34;;;;;;;6.50;2.53;;;26.40;17.50;;;;;;5135306;27;20659;-77
2023/06/13 11:59:16;;;;;;;4.97;2.53;;;25.90;15.90;;;;;;5158101;27;20247;-75
2023/06/13 12:01:47;;;;;;;3.90;2.57;;;25.60;17.40;;;;;;5158114;27;20232;-75
2023/06/13 12:04:16;;;;;;;3.53;2.30;;;25.20;17.20;;;;;;5160103;27;20275;-75
2023/06/13 12:06:45;;;;;;;3.53;2.40;;;25.70;18.10;;;;;;5166765;27;20215;-76
2023/06/13 12:09:15;;;;;;;3.97;2.30;;;26.00;19.80;;;;;;5157208;27;20201;-77
2023/06/13 12:11:44;;;;;;;5.10;2.57;;;26.20;20.80;;;;;;5169820;27;20216;-77
2023/06/13 12:14:18;;;;;;;4.07;2.40;;;26.70;19.80;;;;;;5177739;27;20698;-76
2023/06/13 12:16:51;;;;;;;5.27;2.40;;;26.60;19.40;;;;;;5164564;27;20198;-76
2023/06/13 12:19:21;;;;;;;4.40;2.43;;;26.70;19.20;;;;;;5165946;27;20200;-78
2023/06/13 12:21:51;;;;;;;3.83;2.57;;;26.20;20.10;;;;;;5164821;27;20218;-78
2023/06/13 12:24:23;;;;;;;5.77;2.47;;;26.00;17.40;;;;;;5157131;27;20226;-78
2023/06/13 12:26:52;;;;;;;5.67;2.50;;;26.00;18.00;;;;;;5161347;27;20197;-76
2023/06/13 12:29:27;;;;;;;3.23;2.60;;;26.00;17.50;;;;;;5160955;27;20236;-74
2023/06/13 12:32:02;;;;;;;3.83;2.47;;;25.70;18.40;;;;;;5156664;27;20227;-76
2023/06/13 12:34:33;;;;;;;2.93;2.33;;;25.60;20.10;;;;;;5154222;27;20326;-76
2023/06/13 12:37:04;;;;;;;4.87;2.50;;;25.60;19.40;;;;;;5136954;27;20202;-78
2023/06/13 12:39:33;;;;;;;4.00;2.30;;;25.10;17.40;;;;;;5133164;27;20205;-76
2023/06/13 12:42:04;;;;;;;3.27;2.57;;;25.20;18.50;;;;;;5132564;27;20288;-77
2023/06/13 12:44:37;;;;;;;5.07;2.50;;;25.20;18.30;;;;;;5139076;27;20219;-76
2023/06/13 12:47:07;;;;;;;4.20;2.37;;;25.60;19.50;;;;;;5133043;27;20216;-77
2023/06/13 12:49:36;;;;;;;4.60;2.77;;;25.30;17.90;;;;;;5132769;27;20689;-77
2023/06/13 12:52:06;;;;;;;4.90;2.30;;;25.40;19.00;;;;;;5152052;27;20602;-75
2023/06/13 12:54:36;;;;;;;4.37;2.57;;;25.70;19.90;;;;;;5156096;27;20201;-77
2023/06/13 12:57:08;;;;;;;6.67;2.70;;;25.80;18.00;;;;;;5162897;27;20211;-77
2023/06/13 12:59:40;;;;;;;9.20;2.40;;;25.80;17.90;;;;;;5159747;27;20227;-77
2023/06/13 13:02:10;;;;;;;5.90;2.50;;;26.00;18.00;;;;;;5170841;27;20223;-75
2023/06/13 13:04:41;;;;;;;6.33;2.43;;;25.80;17.70;;;;;;5138881;27;20206;-77